NZAA

Auckland International Airport

Auckland, New Zealand
METAR NZAA 221500Z AUTO 25014KT 9999 -RA BKN015/// BKN026/// 14/13 Q0995 RERA NOSIG
Observed Flight Rules
May-22 @ 15:00 UTC (37 minutes ago) Marginal Visual Flight Rules
Wind Visibility Clouds Conditions
250° at 14 knots 10,000+ meters
  • Broken at 1,500' AGL
  • Broken at 2,600' AGL
  • Light Rain
Temperatures Readings
Current 14°C / 57°F
Dewpoint 13°C / 55°F
Humidity 94%
Altimeter 29.38" Hg
Pressure 995 hPa
Elevation 6
METAR NZAA 221500Z AUTO 25014KT 9999 -RA BKN015/// BKN026/// 14/13 Q0995 RERA NOSIG
Observed Flight Rules
May-22 @ 15:00 UTC
(37 minutes ago)
MVFR
Wind Visibility
250° at 14 knots 10,000+ meters
Clouds
  • Broken at 1,500' AGL
  • Broken at 2,600' AGL
Conditions
  • Light Rain
Temperature Dewpoint
14°C / 57°F 13°C / 55°F
Humidity Altimeter Pressure
94% 29.38" Hg 995 hPa